sensor_id;sensor_type;location;lat;lon;timestamp;pressure;altitude;pressure_sealevel;temperature;humidity
73981;BME280;62348;51.412;5.436;2023-07-13T00:01:15;101299.13;;;15.77;70.50
73981;BME280;62348;51.412;5.436;2023-07-13T00:03:41;101293.38;;;15.79;70.45
73981;BME280;62348;51.412;5.436;2023-07-13T00:06:07;101298.59;;;15.75;70.47
73981;BME280;62348;51.412;5.436;2023-07-13T00:08:33;101293.13;;;15.75;70.58
73981;BME280;62348;51.412;5.436;2023-07-13T00:11:00;101289.00;;;15.78;70.71
73981;BME280;62348;51.412;5.436;2023-07-13T00:13:26;101292.84;;;15.77;70.50
73981;BME280;62348;51.412;5.436;2023-07-13T00:15:52;101288.72;;;15.79;70.82
73981;BME280;62348;51.412;5.436;2023-07-13T00:18:19;101299.38;;;15.76;71.19
73981;BME280;62348;51.412;5.436;2023-07-13T00:20:44;101304.03;;;15.70;71.17
73981;BME280;62348;51.412;5.436;2023-07-13T00:23:10;101299.66;;;15.74;71.03
73981;BME280;62348;51.412;5.436;2023-07-13T00:25:35;101291.25;;;15.71;71.40
73981;BME280;62348;51.412;5.436;2023-07-13T00:28:01;101293.13;;;15.70;71.35
73981;BME280;62348;51.412;5.436;2023-07-13T00:30:27;101290.16;;;15.67;71.78
73981;BME280;62348;51.412;5.436;2023-07-13T00:32:52;101290.47;;;15.65;72.01
73981;BME280;62348;51.412;5.436;2023-07-13T00:35:18;101289.97;;;15.58;71.82
73981;BME280;62348;51.412;5.436;2023-07-13T00:37:44;101285.59;;;15.57;72.08
73981;BME280;62348;51.412;5.436;2023-07-13T00:40:11;101287.78;;;15.60;72.13
73981;BME280;62348;51.412;5.436;2023-07-13T00:42:37;101292.69;;;15.58;72.13
73981;BME280;62348;51.412;5.436;2023-07-13T00:47:48;101304.41;;;15.53;72.52
73981;BME280;62348;51.412;5.436;2023-07-13T00:50:15;101297.63;;;15.51;72.76
73981;BME280;62348;51.412;5.436;2023-07-13T00:52:45;101300.38;;;15.46;73.35
73981;BME280;62348;51.412;5.436;2023-07-13T00:55:13;101303.94;;;15.46;73.11
73981;BME280;62348;51.412;5.436;2023-07-13T00:57:40;101300.13;;;15.47;73.15
73981;BME280;62348;51.412;5.436;2023-07-13T01:00:07;101304.75;;;15.47;73.30
73981;BME280;62348;51.412;5.436;2023-07-13T01:02:39;101307.47;;;15.47;73.68
73981;BME280;62348;51.412;5.436;2023-07-13T01:05:12;101302.31;;;15.45;73.45
73981;BME280;62348;51.412;5.436;2023-07-13T01:07:43;101297.13;;;15.43;74.22
73981;BME280;62348;51.412;5.436;2023-07-13T01:10:10;101305.84;;;15.46;74.10
73981;BME280;62348;51.412;5.436;2023-07-13T01:12:36;101311.56;;;15.44;74.04
73981;BME280;62348;51.412;5.436;2023-07-13T01:15:03;101306.16;;;15.39;74.30
73981;BME280;62348;51.412;5.436;2023-07-13T01:17:31;101312.97;;;15.36;74.46
73981;BME280;62348;51.412;5.436;2023-07-13T01:19:58;101316.00;;;15.35;74.72
73981;BME280;62348;51.412;5.436;2023-07-13T01:22:25;101312.50;;;15.29;75.09
73981;BME280;62348;51.412;5.436;2023-07-13T01:24:53;101314.09;;;15.30;75.14
73981;BME280;62348;51.412;5.436;2023-07-13T01:27:24;101309.78;;;15.29;75.12
73981;BME280;62348;51.412;5.436;2023-07-13T01:29:51;101304.59;;;15.28;75.98
73981;BME280;62348;51.412;5.436;2023-07-13T01:32:23;101305.41;;;15.28;75.60
73981;BME280;62348;51.412;5.436;2023-07-13T01:34:53;101304.06;;;15.26;75.72
73981;BME280;62348;51.412;5.436;2023-07-13T01:37:26;101304.34;;;15.24;76.04
73981;BME280;62348;51.412;5.436;2023-07-13T01:39:52;101303.81;;;15.22;76.43
73981;BME280;62348;51.412;5.436;2023-07-13T01:42:18;101303.56;;;15.18;76.47
73981;BME280;62348;51.412;5.436;2023-07-13T01:44:44;101308.47;;;15.16;76.75
73981;BME280;62348;51.412;5.436;2023-07-13T01:47:10;101304.63;;;15.17;76.87
73981;BME280;62348;51.412;5.436;2023-07-13T01:49:36;101305.50;;;15.13;76.85
73981;BME280;62348;51.412;5.436;2023-07-13T01:52:03;101307.94;;;15.14;77.06
73981;BME280;62348;51.412;5.436;2023-07-13T01:54:28;101308.47;;;15.16;77.23
73981;BME280;62348;51.412;5.436;2023-07-13T01:56:53;101318.25;;;15.17;77.15
73981;BME280;62348;51.412;5.436;2023-07-13T01:59:19;101315.28;;;15.14;77.23
73981;BME280;62348;51.412;5.436;2023-07-13T02:01:44;101320.19;;;15.12;77.39
73981;BME280;62348;51.412;5.436;2023-07-13T02:04:10;101323.75;;;15.07;77.54
73981;BME280;62348;51.412;5.436;2023-07-13T02:06:36;101331.38;;;15.10;77.81
73981;BME280;62348;51.412;5.436;2023-07-13T02:09:01;101321.31;;;15.06;77.95
73981;BME280;62348;51.412;5.436;2023-07-13T02:11:26;101326.47;;;15.12;77.63
73981;BME280;62348;51.412;5.436;2023-07-13T02:13:59;101335.72;;;15.06;78.01
73981;BME280;62348;51.412;5.436;2023-07-13T02:16:24;101330.53;;;15.10;77.82
73981;BME280;62348;51.412;5.436;2023-07-13T02:18:49;101332.19;;;15.06;78.15
73981;BME280;62348;51.412;5.436;2023-07-13T02:21:17;101329.47;;;15.06;78.23
73981;BME280;62348;51.412;5.436;2023-07-13T02:23:43;101332.47;;;15.04;78.37
73981;BME280;62348;51.412;5.436;2023-07-13T02:26:09;101320.50;;;15.05;78.76
73981;BME280;62348;51.412;5.436;2023-07-13T02:28:35;101320.50;;;15.00;78.67
73981;BME280;62348;51.412;5.436;2023-07-13T02:31:12;101323.78;;;15.02;78.56
73981;BME280;62348;51.412;5.436;2023-07-13T02:33:37;101323.81;;;14.97;79.11
73981;BME280;62348;51.412;5.436;2023-07-13T02:36:03;101328.97;;;14.98;78.84
73981;BME280;62348;51.412;5.436;2023-07-13T02:38:31;101328.47;;;14.91;79.41
73981;BME280;62348;51.412;5.436;2023-07-13T02:40:59;101331.16;;;14.96;79.49
73981;BME280;62348;51.412;5.436;2023-07-13T02:43:25;101320.84;;;14.93;79.25
73981;BME280;62348;51.412;5.436;2023-07-13T02:45:50;101323.81;;;14.92;79.46
73981;BME280;62348;51.412;5.436;2023-07-13T02:48:16;101323.56;;;14.88;79.60
73981;BME280;62348;51.412;5.436;2023-07-13T02:50:41;101324.09;;;14.85;80.05
73981;BME280;62348;51.412;5.436;2023-07-13T02:53:07;101325.47;;;14.88;79.91
73981;BME280;62348;51.412;5.436;2023-07-13T02:55:32;101320.59;;;14.84;80.26
73981;BME280;62348;51.412;5.436;2023-07-13T02:57:57;101314.06;;;14.80;80.47
73981;BME280;62348;51.412;5.436;2023-07-13T03:00:23;101318.41;;;14.81;80.62
73981;BME280;62348;51.412;5.436;2023-07-13T03:02:49;101328.47;;;14.81;80.49
73981;BME280;62348;51.412;5.436;2023-07-13T03:05:15;101323.88;;;14.76;80.76
73981;BME280;62348;51.412;5.436;2023-07-13T03:07:41;101330.66;;;14.79;80.72
73981;BME280;62348;51.412;5.436;2023-07-13T03:10:08;101338.31;;;14.77;80.89
73981;BME280;62348;51.412;5.436;2023-07-13T03:12:34;101333.66;;;14.77;80.78
73981;BME280;62348;51.412;5.436;2023-07-13T03:14:59;101333.94;;;14.76;81.07
73981;BME280;62348;51.412;5.436;2023-07-13T03:17:25;101336.13;;;14.74;81.11
73981;BME280;62348;51.412;5.436;2023-07-13T03:19:50;101330.97;;;14.72;81.21
73981;BME280;62348;51.412;5.436;2023-07-13T03:22:17;101328.00;;;14.69;81.61
73981;BME280;62348;51.412;5.436;2023-07-13T03:24:43;101337.22;;;14.68;81.84
73981;BME280;62348;51.412;5.436;2023-07-13T03:27:08;101338.88;;;14.69;82.00
73981;BME280;62348;51.412;5.436;2023-07-13T03:29:34;101345.97;;;14.64;81.94
73981;BME280;62348;51.412;5.436;2023-07-13T03:31:59;101344.06;;;14.60;82.18
73981;BME280;62348;51.412;5.436;2023-07-13T03:34:24;101356.59;;;14.61;82.06
73981;BME280;62348;51.412;5.436;2023-07-13T03:36:50;101354.13;;;14.59;82.22
73981;BME280;62348;51.412;5.436;2023-07-13T03:39:16;101352.75;;;14.52;82.50
73981;BME280;62348;51.412;5.436;2023-07-13T03:41:41;101360.66;;;14.53;82.93
73981;BME280;62348;51.412;5.436;2023-07-13T03:44:06;101351.13;;;14.51;83.09
73981;BME280;62348;51.412;5.436;2023-07-13T03:46:32;101362.28;;;14.54;83.04
73981;BME280;62348;51.412;5.436;2023-07-13T03:48:58;101359.53;;;14.49;83.37
73981;BME280;62348;51.412;5.436;2023-07-13T03:51:24;101358.47;;;14.50;83.40
73981;BME280;62348;51.412;5.436;2023-07-13T03:53:50;101360.09;;;14.51;83.51
73981;BME280;62348;51.412;5.436;2023-07-13T03:56:17;101362.03;;;14.45;83.97
73981;BME280;62348;51.412;5.436;2023-07-13T03:58:45;101361.19;;;14.45;84.21
73981;BME280;62348;51.412;5.436;2023-07-13T04:01:12;101357.94;;;14.48;83.99
73981;BME280;62348;51.412;5.436;2023-07-13T04:03:38;101366.91;;;14.49;84.19
73981;BME280;62348;51.412;5.436;2023-07-13T04:06:05;101367.75;;;14.44;84.47
73981;BME280;62348;51.412;5.436;2023-07-13T04:08:33;101372.34;;;14.49;84.57
73981;BME280;62348;51.412;5.436;2023-07-13T04:10:59;101377.50;;;14.50;84.67
73981;BME280;62348;51.412;5.436;2023-07-13T04:13:25;101372.63;;;14.52;84.92
73981;BME280;62348;51.412;5.436;2023-07-13T04:15:51;101373.97;;;14.55;85.34
73981;BME280;62348;51.412;5.436;2023-07-13T04:18:16;101383.75;;;14.51;85.70
73981;BME280;62348;51.412;5.436;2023-07-13T04:20:42;101382.41;;;14.58;85.65
73981;BME280;62348;51.412;5.436;2023-07-13T04:23:07;101388.13;;;14.67;85.56
73981;BME280;62348;51.412;5.436;2023-07-13T04:25:33;101388.69;;;14.69;85.61
73981;BME280;62348;51.412;5.436;2023-07-13T04:27:58;101389.47;;;14.75;85.63
73981;BME280;62348;51.412;5.436;2023-07-13T04:30:24;101380.47;;;14.79;85.60
73981;BME280;62348;51.412;5.436;2023-07-13T04:32:51;101381.00;;;14.81;85.64
73981;BME280;62348;51.412;5.436;2023-07-13T04:35:18;101389.97;;;14.87;85.78
73981;BME280;62348;51.412;5.436;2023-07-13T04:37:45;101394.34;;;14.88;85.91
73981;BME280;62348;51.412;5.436;2023-07-13T04:40:11;101396.50;;;14.96;85.96
73981;BME280;62348;51.412;5.436;2023-07-13T04:42:37;101391.59;;;14.98;86.49
73981;BME280;62348;51.412;5.436;2023-07-13T04:45:02;101397.84;;;15.04;86.15
73981;BME280;62348;51.412;5.436;2023-07-13T04:47:30;101401.09;;;15.06;86.59
73981;BME280;62348;51.412;5.436;2023-07-13T04:49:56;101401.34;;;15.10;86.75
73981;BME280;62348;51.412;5.436;2023-07-13T04:52:22;101402.16;;;15.15;86.55
73981;BME280;62348;51.412;5.436;2023-07-13T04:54:48;101403.47;;;15.23;86.58
73981;BME280;62348;51.412;5.436;2023-07-13T04:57:13;101396.69;;;15.26;86.75
73981;BME280;62348;51.412;5.436;2023-07-13T04:59:38;101401.00;;;15.32;87.01
73981;BME280;62348;51.412;5.436;2023-07-13T05:02:04;101402.66;;;15.33;87.14
73981;BME280;62348;51.412;5.436;2023-07-13T05:04:30;101405.59;;;15.36;87.05
73981;BME280;62348;51.412;5.436;2023-07-13T05:06:56;101413.47;;;15.48;87.13
73981;BME280;62348;51.412;5.436;2023-07-13T05:09:22;101408.84;;;15.49;87.06
73981;BME280;62348;51.412;5.436;2023-07-13T05:11:47;101415.63;;;15.51;86.61
73981;BME280;62348;51.412;5.436;2023-07-13T05:14:12;101418.88;;;15.58;87.17
73981;BME280;62348;51.412;5.436;2023-07-13T05:16:38;101423.72;;;15.67;87.00
73981;BME280;62348;51.412;5.436;2023-07-13T05:19:03;101416.38;;;15.67;86.59
73981;BME280;62348;51.412;5.436;2023-07-13T05:21:29;101420.97;;;15.72;86.71
73981;BME280;62348;51.412;5.436;2023-07-13T05:23:54;101431.31;;;15.80;86.37
73981;BME280;62348;51.412;5.436;2023-07-13T05:26:20;101433.22;;;15.85;86.33
73981;BME280;62348;51.412;5.436;2023-07-13T05:28:46;101431.81;;;15.87;86.47
73981;BME280;62348;51.412;5.436;2023-07-13T05:31:11;101428.53;;;15.90;86.64
73981;BME280;62348;51.412;5.436;2023-07-13T05:33:37;101433.66;;;15.97;86.44
73981;BME280;62348;51.412;5.436;2023-07-13T05:36:02;101433.13;;;16.00;85.87
73981;BME280;62348;51.412;5.436;2023-07-13T05:38:28;101432.31;;;15.99;85.85
73981;BME280;62348;51.412;5.436;2023-07-13T05:40:55;101438.28;;;16.02;86.00
73981;BME280;62348;51.412;5.436;2023-07-13T05:43:21;101438.03;;;15.98;86.20
73981;BME280;62348;51.412;5.436;2023-07-13T05:45:47;101443.75;;;15.96;85.41
73981;BME280;62348;51.412;5.436;2023-07-13T05:48:13;101441.31;;;15.95;85.71
73981;BME280;62348;51.412;5.436;2023-07-13T05:50:38;101437.78;;;15.94;85.57
73981;BME280;62348;51.412;5.436;2023-07-13T05:53:04;101454.16;;;15.94;85.51
73981;BME280;62348;51.412;5.436;2023-07-13T05:55:30;101455.53;;;15.92;85.80
73981;BME280;62348;51.412;5.436;2023-07-13T05:57:55;101446.78;;;15.95;86.03
73981;BME280;62348;51.412;5.436;2023-07-13T06:00:23;101451.41;;;15.94;85.84
73981;BME280;62348;51.412;5.436;2023-07-13T06:02:49;101448.66;;;15.99;85.97
73981;BME280;62348;51.412;5.436;2023-07-13T06:05:14;101450.53;;;16.04;85.52
73981;BME280;62348;51.412;5.436;2023-07-13T06:07:41;101454.59;;;16.07;85.86
73981;BME280;62348;51.412;5.436;2023-07-13T06:10:06;101461.16;;;16.11;85.95
73981;BME280;62348;51.412;5.436;2023-07-13T06:12:32;101457.31;;;16.12;85.98
73981;BME280;62348;51.412;5.436;2023-07-13T06:14:57;101469.59;;;16.14;86.30
73981;BME280;62348;51.412;5.436;2023-07-13T06:17:22;101470.94;;;16.12;86.06
73981;BME280;62348;51.412;5.436;2023-07-13T06:19:48;101467.41;;;16.11;86.10
73981;BME280;62348;51.412;5.436;2023-07-13T06:22:13;101472.00;;;16.16;86.44
73981;BME280;62348;51.412;5.436;2023-07-13T06:24:38;101467.38;;;16.16;86.53
73981;BME280;62348;51.412;5.436;2023-07-13T06:27:04;101469.50;;;16.25;86.22
73981;BME280;62348;51.412;5.436;2023-07-13T06:29:30;101470.31;;;16.25;85.88
73981;BME280;62348;51.412;5.436;2023-07-13T06:31:56;101468.63;;;16.29;85.82
73981;BME280;62348;51.412;5.436;2023-07-13T06:34:22;101467.78;;;16.34;86.06
73981;BME280;62348;51.412;5.436;2023-07-13T06:36:47;101475.97;;;16.39;85.56
73981;BME280;62348;51.412;5.436;2023-07-13T06:39:12;101478.69;;;16.39;85.24
73981;BME280;62348;51.412;5.436;2023-07-13T06:41:38;101486.00;;;16.44;85.52
73981;BME280;62348;51.412;5.436;2023-07-13T06:44:04;101492.00;;;16.46;85.52
73981;BME280;62348;51.412;5.436;2023-07-13T06:46:30;101489.00;;;16.42;84.61
73981;BME280;62348;51.412;5.436;2023-07-13T06:48:56;101483.00;;;16.45;85.14
73981;BME280;62348;51.412;5.436;2023-07-13T06:51:21;101481.59;;;16.48;85.19
73981;BME280;62348;51.412;5.436;2023-07-13T06:53:47;101494.16;;;16.49;84.90
73981;BME280;62348;51.412;5.436;2023-07-13T06:56:12;101495.50;;;16.51;84.55
73981;BME280;62348;51.412;5.436;2023-07-13T06:58:38;101497.94;;;16.53;84.27
73981;BME280;62348;51.412;5.436;2023-07-13T07:01:04;101493.00;;;16.60;84.85
73981;BME280;62348;51.412;5.436;2023-07-13T07:03:30;101490.78;;;16.62;84.30
73981;BME280;62348;51.412;5.436;2023-07-13T07:06:22;101498.09;;;16.67;83.78
73981;BME280;62348;51.412;5.436;2023-07-13T07:08:51;101492.09;;;16.70;84.52
73981;BME280;62348;51.412;5.436;2023-07-13T07:11:20;101490.16;;;16.70;84.53
73981;BME280;62348;51.412;5.436;2023-07-13T07:13:48;101498.06;;;16.72;84.17
73981;BME280;62348;51.412;5.436;2023-07-13T07:16:14;101502.41;;;16.73;84.03
73981;BME280;62348;51.412;5.436;2023-07-13T07:18:40;101501.31;;;16.74;83.44
73981;BME280;62348;51.412;5.436;2023-07-13T07:21:05;101502.66;;;16.76;83.44
73981;BME280;62348;51.412;5.436;2023-07-13T07:23:31;101507.03;;;16.77;83.89
73981;BME280;62348;51.412;5.436;2023-07-13T07:25:56;101503.78;;;16.75;83.37
73981;BME280;62348;51.412;5.436;2023-07-13T07:28:22;101502.63;;;16.82;83.82
73981;BME280;62348;51.412;5.436;2023-07-13T07:30:48;101506.16;;;16.87;83.75
73981;BME280;62348;51.412;5.436;2023-07-13T07:33:14;101506.91;;;16.93;84.38
73981;BME280;62348;51.412;5.436;2023-07-13T07:35:40;101506.56;;;17.00;83.97
73981;BME280;62348;51.412;5.436;2023-07-13T07:38:05;101510.03;;;17.10;82.77
73981;BME280;62348;51.412;5.436;2023-07-13T07:40:31;101510.75;;;17.21;82.14
73981;BME280;62348;51.412;5.436;2023-07-13T07:42:57;101499.06;;;17.40;82.89
73981;BME280;62348;51.412;5.436;2023-07-13T07:45:22;101494.94;;;17.66;82.37
73981;BME280;62348;51.412;5.436;2023-07-13T07:47:48;101506.34;;;17.92;81.31
73981;BME280;62348;51.412;5.436;2023-07-13T07:50:15;101496.91;;;18.23;80.97
73981;BME280;62348;51.412;5.436;2023-07-13T07:52:41;101510.00;;;18.45;78.77
73981;BME280;62348;51.412;5.436;2023-07-13T07:55:07;101509.59;;;18.51;77.15
73981;BME280;62348;51.412;5.436;2023-07-13T07:57:32;101506.28;;;18.54;77.43
73981;BME280;62348;51.412;5.436;2023-07-13T07:59:58;101522.22;;;18.66;77.92
73981;BME280;62348;51.412;5.436;2023-07-13T08:02:24;101517.78;;;18.89;77.12
73981;BME280;62348;51.412;5.436;2023-07-13T08:04:50;101520.47;;;19.08;75.31
73981;BME280;62348;51.412;5.436;2023-07-13T08:07:15;101522.22;;;19.32;75.10
73981;BME280;62348;51.412;5.436;2023-07-13T08:09:41;101518.75;;;19.40;73.92
73981;BME280;62348;51.412;5.436;2023-07-13T08:12:06;101519.28;;;19.56;74.49
73981;BME280;62348;51.412;5.436;2023-07-13T08:14:32;101514.19;;;19.63;72.50
73981;BME280;62348;51.412;5.436;2023-07-13T08:16:57;101507.78;;;19.68;72.16
73981;BME280;62348;51.412;5.436;2023-07-13T08:19:23;101514.72;;;19.65;72.85
73981;BME280;62348;51.412;5.436;2023-07-13T08:21:48;101515.22;;;19.67;71.12
73981;BME280;62348;51.412;5.436;2023-07-13T08:24:14;101521.00;;;19.80;70.90
73981;BME280;62348;51.412;5.436;2023-07-13T08:26:40;101510.13;;;19.75;70.11
73981;BME280;62348;51.412;5.436;2023-07-13T08:29:05;101511.97;;;19.79;69.85
73981;BME280;62348;51.412;5.436;2023-07-13T08:31:31;101521.91;;;19.89;68.67
73981;BME280;62348;51.412;5.436;2023-07-13T08:33:56;101518.56;;;19.78;68.31
73981;BME280;62348;51.412;5.436;2023-07-13T08:36:22;101530.25;;;19.70;67.83
73981;BME280;62348;51.412;5.436;2023-07-13T08:38:47;101518.78;;;19.96;68.90
73981;BME280;62348;51.412;5.436;2023-07-13T08:41:15;101525.56;;;19.98;69.51
73981;BME280;62348;51.412;5.436;2023-07-13T08:43:44;101527.50;;;19.84;67.46
73981;BME280;62348;51.412;5.436;2023-07-13T08:46:19;101519.97;;;20.03;69.32
73981;BME280;62348;51.412;5.436;2023-07-13T08:49:13;101515.63;;;20.25;68.34
73981;BME280;62348;51.412;5.436;2023-07-13T08:52:08;101518.47;;;20.20;67.84
73981;BME280;62348;51.412;5.436;2023-07-13T08:54:36;101529.34;;;20.25;67.51
73981;BME280;62348;51.412;5.436;2023-07-13T08:57:19;101527.91;;;20.27;67.43
73981;BME280;62348;51.412;5.436;2023-07-13T08:59:45;101523.97;;;20.20;64.60
73981;BME280;62348;51.412;5.436;2023-07-13T09:02:18;101521.56;;;20.04;66.26
73981;BME280;62348;51.412;5.436;2023-07-13T09:05:29;101513.88;;;19.93;65.61
73981;BME280;62348;51.412;5.436;2023-07-13T09:07:57;101513.28;;;19.96;64.97
73981;BME280;62348;51.412;5.436;2023-07-13T09:10:46;101519.56;;;19.82;66.38
73981;BME280;62348;51.412;5.436;2023-07-13T09:13:33;101513.78;;;19.84;66.84
73981;BME280;62348;51.412;5.436;2023-07-13T09:16:01;101515.41;;;19.85;65.13
73981;BME280;62348;51.412;5.436;2023-07-13T09:19:11;101515.97;;;20.09;66.57
73981;BME280;62348;51.412;5.436;2023-07-13T09:21:32;101507.84;;;20.41;64.96
73981;BME280;62348;51.412;5.436;2023-07-13T09:24:26;101516.09;;;20.63;65.93
73981;BME280;62348;51.412;5.436;2023-07-13T09:26:54;101504.19;;;20.91;64.10
73981;BME280;62348;51.412;5.436;2023-07-13T09:29:27;101512.50;;;21.08;63.77
73981;BME280;62348;51.412;5.436;2023-07-13T09:31:55;101511.03;;;21.02;61.99
73981;BME280;62348;51.412;5.436;2023-07-13T09:34:23;101507.63;;;21.05;60.85
73981;BME280;62348;51.412;5.436;2023-07-13T09:36:49;101504.94;;;21.22;62.57
73981;BME280;62348;51.412;5.436;2023-07-13T09:39:29;101498.34;;;21.32;62.65
73981;BME280;62348;51.412;5.436;2023-07-13T09:42:14;101505.50;;;21.33;62.07
73981;BME280;62348;51.412;5.436;2023-07-13T09:47:18;101508.81;;;21.53;60.71
73981;BME280;62348;51.412;5.436;2023-07-13T09:49:44;101509.72;;;21.39;60.84
73981;BME280;62348;51.412;5.436;2023-07-13T09:52:15;101511.91;;;21.20;61.63
73981;BME280;62348;51.412;5.436;2023-07-13T09:54:45;101520.06;;;21.02;61.26
73981;BME280;62348;51.412;5.436;2023-07-13T09:57:20;101515.47;;;20.89;62.08
73981;BME280;62348;51.412;5.436;2023-07-13T09:59:50;101526.75;;;21.10;63.32
73981;BME280;62348;51.412;5.436;2023-07-13T10:02:30;101519.53;;;21.23;61.47
73981;BME280;62348;51.412;5.436;2023-07-13T10:05:04;101512.09;;;21.32;60.67
73981;BME280;62348;51.412;5.436;2023-07-13T10:07:31;101516.91;;;21.49;62.99
73981;BME280;62348;51.412;5.436;2023-07-13T10:09:59;101527.41;;;21.47;62.50
73981;BME280;62348;51.412;5.436;2023-07-13T10:12:29;101517.16;;;21.39;61.61
73981;BME280;62348;51.412;5.436;2023-07-13T10:15:01;101512.16;;;21.41;62.64
73981;BME280;62348;51.412;5.436;2023-07-13T10:17:31;101514.84;;;21.63;61.80
73981;BME280;62348;51.412;5.436;2023-07-13T10:20:02;101513.38;;;21.57;60.19
73981;BME280;62348;51.412;5.436;2023-07-13T10:22:46;101514.50;;;21.56;60.27
73981;BME280;62348;51.412;5.436;2023-07-13T10:25:24;101520.38;;;21.81;60.50
73981;BME280;62348;51.412;5.436;2023-07-13T10:27:53;101520.03;;;21.65;58.38
73981;BME280;62348;51.412;5.436;2023-07-13T10:30:32;101525.81;;;21.55;59.55
73981;BME280;62348;51.412;5.436;2023-07-13T10:33:02;101520.91;;;21.43;60.13
73981;BME280;62348;51.412;5.436;2023-07-13T10:35:29;101523.78;;;21.38;58.77
73981;BME280;62348;51.412;5.436;2023-07-13T10:38:03;101522.31;;;21.32;59.95
73981;BME280;62348;51.412;5.436;2023-07-13T10:40:37;101519.19;;;21.24;61.24
73981;BME280;62348;51.412;5.436;2023-07-13T10:43:11;101526.34;;;21.25;59.11
73981;BME280;62348;51.412;5.436;2023-07-13T10:45:40;101526.63;;;21.15;56.54
73981;BME280;62348;51.412;5.436;2023-07-13T10:48:09;101521.84;;;20.98;56.89
73981;BME280;62348;51.412;5.436;2023-07-13T10:50:37;101528.72;;;20.87;59.89
73981;BME280;62348;51.412;5.436;2023-07-13T10:53:31;101539.53;;;20.83;61.82
73981;BME280;62348;51.412;5.436;2023-07-13T10:58:39;101543.78;;;21.21;63.25
73981;BME280;62348;51.412;5.436;2023-07-13T11:01:15;101535.88;;;21.28;63.48
73981;BME280;62348;51.412;5.436;2023-07-13T11:03:50;101525.19;;;21.26;60.02
73981;BME280;62348;51.412;5.436;2023-07-13T11:08:52;101532.00;;;21.29;59.81
73981;BME280;62348;51.412;5.436;2023-07-13T11:11:34;101526.22;;;21.39;61.64
73981;BME280;62348;51.412;5.436;2023-07-13T11:16:47;101525.16;;;21.18;58.70
73981;BME280;62348;51.412;5.436;2023-07-13T11:25:20;101535.31;;;21.09;58.84
73981;BME280;62348;51.412;5.436;2023-07-13T11:27:52;101530.06;;;21.30;58.32
73981;BME280;62348;51.412;5.436;2023-07-13T11:36:05;101517.16;;;21.96;56.25
73981;BME280;62348;51.412;5.436;2023-07-13T11:38:38;101519.94;;;22.05;54.25
73981;BME280;62348;51.412;5.436;2023-07-13T11:43:37;101510.88;;;22.05;56.89
73981;BME280;62348;51.412;5.436;2023-07-13T11:46:34;101519.16;;;22.22;58.36
73981;BME280;62348;51.412;5.436;2023-07-13T11:48:59;101525.81;;;22.30;54.66
73981;BME280;62348;51.412;5.436;2023-07-13T11:51:30;101526.81;;;22.42;53.07
73981;BME280;62348;51.412;5.436;2023-07-13T11:54:15;101534.72;;;22.53;53.00
73981;BME280;62348;51.412;5.436;2023-07-13T11:56:42;101516.41;;;22.57;52.20
73981;BME280;62348;51.412;5.436;2023-07-13T11:59:08;101521.09;;;22.65;51.22
73981;BME280;62348;51.412;5.436;2023-07-13T12:01:43;101515.56;;;22.74;52.24
73981;BME280;62348;51.412;5.436;2023-07-13T12:04:23;101519.91;;;22.84;51.71
73981;BME280;62348;51.412;5.436;2023-07-13T12:07:16;101521.19;;;22.95;52.35
73981;BME280;62348;51.412;5.436;2023-07-13T12:09:42;101524.94;;;22.81;49.80
73981;BME280;62348;51.412;5.436;2023-07-13T12:12:18;101535.50;;;22.88;49.93
73981;BME280;62348;51.412;5.436;2023-07-13T12:14:44;101531.72;;;22.93;48.65
73981;BME280;62348;51.412;5.436;2023-07-13T12:17:19;101541.28;;;22.95;48.00
73981;BME280;62348;51.412;5.436;2023-07-13T12:19:45;101534.81;;;23.00;47.10
73981;BME280;62348;51.412;5.436;2023-07-13T12:22:13;101533.66;;;23.01;47.98
73981;BME280;62348;51.412;5.436;2023-07-13T12:24:41;101548.78;;;23.04;47.30
73981;BME280;62348;51.412;5.436;2023-07-13T12:27:19;101551.84;;;23.02;47.83
73981;BME280;62348;51.412;5.436;2023-07-13T12:30:02;101548.13;;;22.98;48.56
73981;BME280;62348;51.412;5.436;2023-07-13T12:32:28;101550.06;;;22.89;48.16
73981;BME280;62348;51.412;5.436;2023-07-13T12:35:01;101556.88;;;22.91;49.72
73981;BME280;62348;51.412;5.436;2023-07-13T12:37:28;101545.03;;;22.82;48.54
73981;BME280;62348;51.412;5.436;2023-07-13T12:39:55;101554.00;;;22.79;48.75
73981;BME280;62348;51.412;5.436;2023-07-13T12:42:25;101561.28;;;22.66;49.31
73981;BME280;62348;51.412;5.436;2023-07-13T12:45:17;101567.63;;;22.58;50.57
73981;BME280;62348;51.412;5.436;2023-07-13T12:47:46;101569.88;;;22.38;51.66
73981;BME280;62348;51.412;5.436;2023-07-13T12:50:18;101565.94;;;22.13;50.33
73981;BME280;62348;51.412;5.436;2023-07-13T12:52:44;101579.53;;;22.01;51.00
73981;BME280;62348;51.412;5.436;2023-07-13T12:55:18;101573.66;;;21.85;51.14
73981;BME280;62348;51.412;5.436;2023-07-13T12:57:50;101572.69;;;21.72;53.14
73981;BME280;62348;51.412;5.436;2023-07-13T13:00:27;101567.56;;;21.57;53.10
73981;BME280;62348;51.412;5.436;2023-07-13T13:02:55;101570.03;;;21.36;54.74
73981;BME280;62348;51.412;5.436;2023-07-13T13:05:22;101579.19;;;21.22;56.43
73981;BME280;62348;51.412;5.436;2023-07-13T13:07:50;101579.97;;;21.14;58.31
73981;BME280;62348;51.412;5.436;2023-07-13T13:10:15;101593.81;;;21.00;59.74
73981;BME280;62348;51.412;5.436;2023-07-13T13:12:41;101596.78;;;20.90;63.47
73981;BME280;62348;51.412;5.436;2023-07-13T13:15:10;101592.16;;;20.77;65.80
73981;BME280;62348;51.412;5.436;2023-07-13T13:17:39;101598.84;;;20.62;67.54
73981;BME280;62348;51.412;5.436;2023-07-13T13:20:16;101595.88;;;20.58;65.05
73981;BME280;62348;51.412;5.436;2023-07-13T13:22:42;101605.66;;;20.51;65.67
73981;BME280;62348;51.412;5.436;2023-07-13T13:25:10;101607.00;;;20.39;66.52